sensor_id;sensor_type;location;lat;lon;timestamp;P1;durP1;ratioP1;P2;durP2;ratioP2
14209;SDS011;7188;56.070;12.698;2024-02-23T00:01:51;7.23;;;6.50;;
14209;SDS011;7188;56.070;12.698;2024-02-23T00:04:16;7.83;;;6.67;;
14209;SDS011;7188;56.070;12.698;2024-02-23T00:06:44;6.80;;;6.13;;
14209;SDS011;7188;56.070;12.698;2024-02-23T00:09:09;5.87;;;5.33;;
14209;SDS011;7188;56.070;12.698;2024-02-23T00:11:35;6.60;;;5.67;;
14209;SDS011;7188;56.070;12.698;2024-02-23T00:14:06;6.70;;;4.83;;
14209;SDS011;7188;56.070;12.698;2024-02-23T00:16:36;5.23;;;4.73;;
14209;SDS011;7188;56.070;12.698;2024-02-23T00:19:03;5.70;;;5.17;;
14209;SDS011;7188;56.070;12.698;2024-02-23T00:21:29;5.67;;;5.17;;
14209;SDS011;7188;56.070;12.698;2024-02-23T00:23:54;5.40;;;4.90;;
14209;SDS011;7188;56.070;12.698;2024-02-23T00:26:20;5.67;;;5.17;;
14209;SDS011;7188;56.070;12.698;2024-02-23T00:28:45;6.07;;;5.57;;
14209;SDS011;7188;56.070;12.698;2024-02-23T00:31:11;6.37;;;5.77;;
14209;SDS011;7188;56.070;12.698;2024-02-23T00:33:37;6.10;;;5.50;;
14209;SDS011;7188;56.070;12.698;2024-02-23T00:36:02;6.90;;;6.20;;
14209;SDS011;7188;56.070;12.698;2024-02-23T00:38:28;7.13;;;6.43;;
14209;SDS011;7188;56.070;12.698;2024-02-23T00:40:54;7.73;;;6.87;;
14209;SDS011;7188;56.070;12.698;2024-02-23T00:43:19;8.57;;;7.67;;
14209;SDS011;7188;56.070;12.698;2024-02-23T00:45:45;10.73;;;7.23;;
14209;SDS011;7188;56.070;12.698;2024-02-23T00:48:11;10.07;;;8.90;;
14209;SDS011;7188;56.070;12.698;2024-02-23T00:53:59;12.70;;;10.03;;
14209;SDS011;7188;56.070;12.698;2024-02-23T00:56:31;13.13;;;10.83;;
14209;SDS011;7188;56.070;12.698;2024-02-23T00:58:57;13.87;;;10.97;;
14209;SDS011;7188;56.070;12.698;2024-02-23T01:01:22;13.80;;;10.83;;
14209;SDS011;7188;56.070;12.698;2024-02-23T01:03:48;14.47;;;11.57;;
14209;SDS011;7188;56.070;12.698;2024-02-23T01:06:26;13.77;;;11.97;;
14209;SDS011;7188;56.070;12.698;2024-02-23T01:08:53;14.40;;;11.23;;
14209;SDS011;7188;56.070;12.698;2024-02-23T01:11:19;14.50;;;11.53;;
14209;SDS011;7188;56.070;12.698;2024-02-23T01:13:44;14.77;;;11.70;;
14209;SDS011;7188;56.070;12.698;2024-02-23T01:16:15;14.23;;;11.13;;
14209;SDS011;7188;56.070;12.698;2024-02-23T01:18:41;15.27;;;11.77;;
14209;SDS011;7188;56.070;12.698;2024-02-23T01:21:07;16.10;;;11.73;;
14209;SDS011;7188;56.070;12.698;2024-02-23T01:26:19;15.57;;;10.97;;
14209;SDS011;7188;56.070;12.698;2024-02-23T01:28:44;16.63;;;11.90;;
14209;SDS011;7188;56.070;12.698;2024-02-23T01:31:11;12.87;;;10.27;;
14209;SDS011;7188;56.070;12.698;2024-02-23T01:33:37;11.67;;;10.03;;
14209;SDS011;7188;56.070;12.698;2024-02-23T01:36:04;14.63;;;10.80;;
14209;SDS011;7188;56.070;12.698;2024-02-23T01:38:30;12.67;;;10.07;;
14209;SDS011;7188;56.070;12.698;2024-02-23T01:40:58;13.27;;;10.73;;
14209;SDS011;7188;56.070;12.698;2024-02-23T01:43:24;14.83;;;11.43;;
14209;SDS011;7188;56.070;12.698;2024-02-23T01:45:49;14.90;;;11.97;;
14209;SDS011;7188;56.070;12.698;2024-02-23T01:48:15;18.63;;;13.10;;
14209;SDS011;7188;56.070;12.698;2024-02-23T01:50:41;16.27;;;12.60;;
14209;SDS011;7188;56.070;12.698;2024-02-23T01:53:08;16.43;;;11.30;;
14209;SDS011;7188;56.070;12.698;2024-02-23T01:55:35;17.00;;;12.30;;
14209;SDS011;7188;56.070;12.698;2024-02-23T01:58:03;18.57;;;11.90;;
14209;SDS011;7188;56.070;12.698;2024-02-23T02:00:29;17.23;;;11.80;;
14209;SDS011;7188;56.070;12.698;2024-02-23T02:02:56;21.53;;;12.83;;
14209;SDS011;7188;56.070;12.698;2024-02-23T02:05:22;15.17;;;11.87;;
14209;SDS011;7188;56.070;12.698;2024-02-23T02:07:49;18.70;;;12.73;;
14209;SDS011;7188;56.070;12.698;2024-02-23T02:10:19;17.50;;;12.70;;
14209;SDS011;7188;56.070;12.698;2024-02-23T02:12:46;19.33;;;11.93;;
14209;SDS011;7188;56.070;12.698;2024-02-23T02:15:12;12.97;;;10.03;;
14209;SDS011;7188;56.070;12.698;2024-02-23T02:17:37;11.43;;;9.80;;
14209;SDS011;7188;56.070;12.698;2024-02-23T02:22:57;15.43;;;10.23;;
14209;SDS011;7188;56.070;12.698;2024-02-23T02:25:22;14.00;;;10.20;;
14209;SDS011;7188;56.070;12.698;2024-02-23T02:27:48;9.77;;;8.77;;
14209;SDS011;7188;56.070;12.698;2024-02-23T02:30:13;12.00;;;8.03;;
14209;SDS011;7188;56.070;12.698;2024-02-23T02:32:39;8.43;;;6.90;;
14209;SDS011;7188;56.070;12.698;2024-02-23T02:35:05;9.20;;;6.30;;
14209;SDS011;7188;56.070;12.698;2024-02-23T02:37:31;12.50;;;5.83;;
14209;SDS011;7188;56.070;12.698;2024-02-23T02:39:57;4.40;;;3.80;;
14209;SDS011;7188;56.070;12.698;2024-02-23T02:42:22;7.10;;;3.50;;
14209;SDS011;7188;56.070;12.698;2024-02-23T02:44:48;8.63;;;3.23;;
14209;SDS011;7188;56.070;12.698;2024-02-23T02:47:23;4.93;;;2.47;;
14209;SDS011;7188;56.070;12.698;2024-02-23T02:49:49;5.97;;;1.57;;
14209;SDS011;7188;56.070;12.698;2024-02-23T02:52:15;2.30;;;1.10;;
14209;SDS011;7188;56.070;12.698;2024-02-23T02:54:40;0.93;;;0.60;;
14209;SDS011;7188;56.070;12.698;2024-02-23T02:57:06;2.07;;;0.40;;
14209;SDS011;7188;56.070;12.698;2024-02-23T02:59:35;2.80;;;0.50;;
14209;SDS011;7188;56.070;12.698;2024-02-23T03:02:01;1.60;;;0.40;;
14209;SDS011;7188;56.070;12.698;2024-02-23T03:04:26;1.37;;;0.83;;
14209;SDS011;7188;56.070;12.698;2024-02-23T03:06:52;1.43;;;0.37;;
14209;SDS011;7188;56.070;12.698;2024-02-23T03:09:18;3.77;;;0.77;;
14209;SDS011;7188;56.070;12.698;2024-02-23T03:11:43;1.67;;;0.37;;
14209;SDS011;7188;56.070;12.698;2024-02-23T03:14:09;4.10;;;0.50;;
14209;SDS011;7188;56.070;12.698;2024-02-23T03:16:35;1.93;;;0.20;;
14209;SDS011;7188;56.070;12.698;2024-02-23T03:19:02;2.33;;;0.30;;
14209;SDS011;7188;56.070;12.698;2024-02-23T03:21:28;1.57;;;0.30;;
14209;SDS011;7188;56.070;12.698;2024-02-23T03:23:54;2.70;;;0.40;;
14209;SDS011;7188;56.070;12.698;2024-02-23T03:26:19;2.07;;;0.33;;
14209;SDS011;7188;56.070;12.698;2024-02-23T03:28:45;2.37;;;0.60;;
14209;SDS011;7188;56.070;12.698;2024-02-23T03:31:11;1.37;;;0.30;;
14209;SDS011;7188;56.070;12.698;2024-02-23T03:33:36;2.93;;;0.30;;
14209;SDS011;7188;56.070;12.698;2024-02-23T03:36:02;4.00;;;0.33;;
14209;SDS011;7188;56.070;12.698;2024-02-23T03:38:28;2.90;;;0.50;;
14209;SDS011;7188;56.070;12.698;2024-02-23T03:40:55;1.07;;;0.50;;
14209;SDS011;7188;56.070;12.698;2024-02-23T03:43:21;3.73;;;0.60;;
14209;SDS011;7188;56.070;12.698;2024-02-23T03:45:46;7.00;;;0.87;;
14209;SDS011;7188;56.070;12.698;2024-02-23T03:48:12;4.37;;;0.43;;
14209;SDS011;7188;56.070;12.698;2024-02-23T03:50:38;2.90;;;0.50;;
14209;SDS011;7188;56.070;12.698;2024-02-23T03:53:04;3.73;;;0.40;;
14209;SDS011;7188;56.070;12.698;2024-02-23T03:55:30;2.23;;;0.93;;
14209;SDS011;7188;56.070;12.698;2024-02-23T03:57:55;1.97;;;0.37;;
14209;SDS011;7188;56.070;12.698;2024-02-23T04:00:21;2.03;;;0.50;;
14209;SDS011;7188;56.070;12.698;2024-02-23T04:02:48;2.23;;;0.50;;
14209;SDS011;7188;56.070;12.698;2024-02-23T04:05:32;4.43;;;1.00;;
14209;SDS011;7188;56.070;12.698;2024-02-23T04:07:58;2.53;;;0.30;;
14209;SDS011;7188;56.070;12.698;2024-02-23T04:10:39;3.50;;;0.33;;
14209;SDS011;7188;56.070;12.698;2024-02-23T04:13:04;1.90;;;0.40;;
14209;SDS011;7188;56.070;12.698;2024-02-23T04:15:30;8.37;;;0.47;;
14209;SDS011;7188;56.070;12.698;2024-02-23T04:17:55;3.63;;;0.40;;
14209;SDS011;7188;56.070;12.698;2024-02-23T04:20:21;3.77;;;0.87;;
14209;SDS011;7188;56.070;12.698;2024-02-23T04:22:47;3.07;;;0.40;;
14209;SDS011;7188;56.070;12.698;2024-02-23T04:25:12;3.77;;;0.57;;
14209;SDS011;7188;56.070;12.698;2024-02-23T04:27:38;4.63;;;0.60;;
14209;SDS011;7188;56.070;12.698;2024-02-23T04:30:04;2.30;;;0.50;;
14209;SDS011;7188;56.070;12.698;2024-02-23T04:32:31;2.03;;;0.70;;
14209;SDS011;7188;56.070;12.698;2024-02-23T04:34:56;4.00;;;0.67;;
14209;SDS011;7188;56.070;12.698;2024-02-23T04:37:22;2.13;;;0.40;;
14209;SDS011;7188;56.070;12.698;2024-02-23T04:39:47;3.23;;;0.70;;
14209;SDS011;7188;56.070;12.698;2024-02-23T04:42:13;4.97;;;0.50;;
14209;SDS011;7188;56.070;12.698;2024-02-23T04:44:40;6.17;;;1.13;;
14209;SDS011;7188;56.070;12.698;2024-02-23T04:47:07;3.90;;;1.00;;
14209;SDS011;7188;56.070;12.698;2024-02-23T04:49:33;4.80;;;0.70;;
14209;SDS011;7188;56.070;12.698;2024-02-23T04:51:59;6.10;;;0.80;;
14209;SDS011;7188;56.070;12.698;2024-02-23T04:54:25;4.13;;;0.47;;
14209;SDS011;7188;56.070;12.698;2024-02-23T04:56:51;3.90;;;0.70;;
14209;SDS011;7188;56.070;12.698;2024-02-23T04:59:16;4.03;;;0.53;;
14209;SDS011;7188;56.070;12.698;2024-02-23T05:01:57;2.30;;;0.57;;
14209;SDS011;7188;56.070;12.698;2024-02-23T05:04:23;4.27;;;1.40;;
14209;SDS011;7188;56.070;12.698;2024-02-23T05:06:51;3.50;;;0.73;;
14209;SDS011;7188;56.070;12.698;2024-02-23T05:09:17;4.60;;;0.60;;
14209;SDS011;7188;56.070;12.698;2024-02-23T05:11:43;1.67;;;0.50;;
14209;SDS011;7188;56.070;12.698;2024-02-23T05:14:10;5.50;;;0.70;;
14209;SDS011;7188;56.070;12.698;2024-02-23T05:16:36;5.00;;;0.90;;
14209;SDS011;7188;56.070;12.698;2024-02-23T05:19:02;0.97;;;0.40;;
14209;SDS011;7188;56.070;12.698;2024-02-23T05:21:27;2.90;;;1.00;;
14209;SDS011;7188;56.070;12.698;2024-02-23T05:23:53;5.83;;;0.93;;
14209;SDS011;7188;56.070;12.698;2024-02-23T05:26:19;2.07;;;0.63;;
14209;SDS011;7188;56.070;12.698;2024-02-23T05:28:45;4.03;;;0.60;;
14209;SDS011;7188;56.070;12.698;2024-02-23T05:31:11;6.13;;;0.90;;
14209;SDS011;7188;56.070;12.698;2024-02-23T05:36:39;5.67;;;0.70;;
14209;SDS011;7188;56.070;12.698;2024-02-23T05:39:05;5.40;;;0.90;;
14209;SDS011;7188;56.070;12.698;2024-02-23T05:41:32;7.77;;;0.70;;
14209;SDS011;7188;56.070;12.698;2024-02-23T05:43:58;11.63;;;1.10;;
14209;SDS011;7188;56.070;12.698;2024-02-23T05:46:24;10.23;;;2.00;;
14209;SDS011;7188;56.070;12.698;2024-02-23T05:51:43;8.80;;;1.10;;
14209;SDS011;7188;56.070;12.698;2024-02-23T05:54:09;6.70;;;1.00;;
14209;SDS011;7188;56.070;12.698;2024-02-23T05:56:35;11.03;;;1.53;;
14209;SDS011;7188;56.070;12.698;2024-02-23T05:59:02;7.27;;;2.23;;
14209;SDS011;7188;56.070;12.698;2024-02-23T06:01:28;10.97;;;1.60;;
14209;SDS011;7188;56.070;12.698;2024-02-23T06:03:53;12.50;;;1.77;;
14209;SDS011;7188;56.070;12.698;2024-02-23T06:06:20;10.97;;;1.30;;
14209;SDS011;7188;56.070;12.698;2024-02-23T06:08:45;16.83;;;1.87;;
14209;SDS011;7188;56.070;12.698;2024-02-23T06:11:11;8.63;;;1.70;;
14209;SDS011;7188;56.070;12.698;2024-02-23T06:13:37;8.37;;;1.90;;
14209;SDS011;7188;56.070;12.698;2024-02-23T06:16:04;13.40;;;1.67;;
14209;SDS011;7188;56.070;12.698;2024-02-23T06:18:30;11.40;;;1.20;;
14209;SDS011;7188;56.070;12.698;2024-02-23T06:20:55;8.90;;;1.40;;
14209;SDS011;7188;56.070;12.698;2024-02-23T06:23:21;7.83;;;1.70;;
14209;SDS011;7188;56.070;12.698;2024-02-23T06:25:47;10.27;;;1.43;;
14209;SDS011;7188;56.070;12.698;2024-02-23T06:28:13;8.93;;;1.50;;
14209;SDS011;7188;56.070;12.698;2024-02-23T06:33:33;8.83;;;1.50;;
14209;SDS011;7188;56.070;12.698;2024-02-23T06:35:59;14.67;;;2.80;;
14209;SDS011;7188;56.070;12.698;2024-02-23T06:38:25;8.87;;;1.47;;
14209;SDS011;7188;56.070;12.698;2024-02-23T06:40:51;8.13;;;1.87;;
14209;SDS011;7188;56.070;12.698;2024-02-23T06:43:17;10.10;;;1.60;;
14209;SDS011;7188;56.070;12.698;2024-02-23T06:45:44;12.17;;;1.53;;
14209;SDS011;7188;56.070;12.698;2024-02-23T06:48:09;9.07;;;1.27;;
14209;SDS011;7188;56.070;12.698;2024-02-23T06:50:35;7.83;;;1.50;;
14209;SDS011;7188;56.070;12.698;2024-02-23T06:53:01;7.93;;;1.53;;
14209;SDS011;7188;56.070;12.698;2024-02-23T06:55:27;10.80;;;1.37;;
14209;SDS011;7188;56.070;12.698;2024-02-23T06:57:53;12.30;;;2.27;;
14209;SDS011;7188;56.070;12.698;2024-02-23T07:00:22;13.90;;;1.80;;
14209;SDS011;7188;56.070;12.698;2024-02-23T07:02:48;7.67;;;1.30;;
14209;SDS011;7188;56.070;12.698;2024-02-23T07:05:13;11.07;;;1.67;;
14209;SDS011;7188;56.070;12.698;2024-02-23T07:07:39;9.40;;;1.50;;
14209;SDS011;7188;56.070;12.698;2024-02-23T07:10:06;7.17;;;1.27;;
14209;SDS011;7188;56.070;12.698;2024-02-23T07:12:33;5.77;;;1.50;;
14209;SDS011;7188;56.070;12.698;2024-02-23T07:14:58;6.43;;;1.30;;
14209;SDS011;7188;56.070;12.698;2024-02-23T07:17:24;12.30;;;1.80;;
14209;SDS011;7188;56.070;12.698;2024-02-23T07:19:50;7.60;;;1.20;;
14209;SDS011;7188;56.070;12.698;2024-02-23T07:22:16;8.67;;;2.03;;
14209;SDS011;7188;56.070;12.698;2024-02-23T07:25:09;7.20;;;1.23;;
14209;SDS011;7188;56.070;12.698;2024-02-23T07:27:35;10.30;;;1.87;;
14209;SDS011;7188;56.070;12.698;2024-02-23T07:30:00;7.73;;;1.30;;
14209;SDS011;7188;56.070;12.698;2024-02-23T07:32:27;9.43;;;1.20;;
14209;SDS011;7188;56.070;12.698;2024-02-23T07:34:54;5.43;;;0.90;;
14209;SDS011;7188;56.070;12.698;2024-02-23T07:37:20;5.73;;;1.00;;
14209;SDS011;7188;56.070;12.698;2024-02-23T07:39:46;12.03;;;2.60;;
14209;SDS011;7188;56.070;12.698;2024-02-23T07:42:11;5.00;;;1.33;;
14209;SDS011;7188;56.070;12.698;2024-02-23T07:44:39;8.90;;;1.73;;
14209;SDS011;7188;56.070;12.698;2024-02-23T07:47:05;9.83;;;1.53;;
14209;SDS011;7188;56.070;12.698;2024-02-23T07:49:31;8.53;;;2.03;;
14209;SDS011;7188;56.070;12.698;2024-02-23T07:51:57;7.10;;;1.20;;
14209;SDS011;7188;56.070;12.698;2024-02-23T07:54:22;10.20;;;1.60;;
14209;SDS011;7188;56.070;12.698;2024-02-23T07:56:48;6.43;;;1.10;;
14209;SDS011;7188;56.070;12.698;2024-02-23T07:59:13;8.50;;;1.73;;
14209;SDS011;7188;56.070;12.698;2024-02-23T08:01:39;7.97;;;1.33;;
14209;SDS011;7188;56.070;12.698;2024-02-23T08:04:05;6.43;;;1.10;;
14209;SDS011;7188;56.070;12.698;2024-02-23T08:06:31;5.93;;;1.23;;
14209;SDS011;7188;56.070;12.698;2024-02-23T08:08:56;9.27;;;0.90;;
14209;SDS011;7188;56.070;12.698;2024-02-23T08:11:22;8.47;;;1.00;;
14209;SDS011;7188;56.070;12.698;2024-02-23T08:13:54;6.27;;;1.30;;
14209;SDS011;7188;56.070;12.698;2024-02-23T08:16:19;5.63;;;1.03;;
14209;SDS011;7188;56.070;12.698;2024-02-23T08:18:45;8.40;;;1.10;;
14209;SDS011;7188;56.070;12.698;2024-02-23T08:21:10;6.73;;;1.10;;
14209;SDS011;7188;56.070;12.698;2024-02-23T08:23:36;3.67;;;0.50;;
14209;SDS011;7188;56.070;12.698;2024-02-23T08:26:02;7.50;;;0.70;;
14209;SDS011;7188;56.070;12.698;2024-02-23T08:28:28;6.83;;;0.93;;
14209;SDS011;7188;56.070;12.698;2024-02-23T08:30:53;4.50;;;1.33;;
14209;SDS011;7188;56.070;12.698;2024-02-23T08:33:19;7.73;;;1.60;;
14209;SDS011;7188;56.070;12.698;2024-02-23T08:35:45;9.03;;;2.33;;
14209;SDS011;7188;56.070;12.698;2024-02-23T08:38:13;5.70;;;1.90;;
14209;SDS011;7188;56.070;12.698;2024-02-23T08:40:39;8.57;;;1.63;;
14209;SDS011;7188;56.070;12.698;2024-02-23T08:43:05;9.97;;;1.50;;
14209;SDS011;7188;56.070;12.698;2024-02-23T08:48:22;10.97;;;1.83;;
14209;SDS011;7188;56.070;12.698;2024-02-23T08:50:47;6.47;;;1.07;;
14209;SDS011;7188;56.070;12.698;2024-02-23T08:53:13;10.20;;;1.37;;
14209;SDS011;7188;56.070;12.698;2024-02-23T08:55:46;8.77;;;1.53;;
14209;SDS011;7188;56.070;12.698;2024-02-23T08:58:12;10.70;;;1.40;;
14209;SDS011;7188;56.070;12.698;2024-02-23T09:00:38;3.97;;;1.30;;
14209;SDS011;7188;56.070;12.698;2024-02-23T09:03:04;7.93;;;1.47;;
14209;SDS011;7188;56.070;12.698;2024-02-23T09:05:29;11.20;;;1.30;;
14209;SDS011;7188;56.070;12.698;2024-02-23T09:07:55;11.23;;;1.53;;
14209;SDS011;7188;56.070;12.698;2024-02-23T09:10:21;12.43;;;1.83;;
14209;SDS011;7188;56.070;12.698;2024-02-23T09:12:46;9.53;;;1.53;;
14209;SDS011;7188;56.070;12.698;2024-02-23T09:15:12;3.57;;;0.80;;
14209;SDS011;7188;56.070;12.698;2024-02-23T09:17:39;8.90;;;1.63;;
14209;SDS011;7188;56.070;12.698;2024-02-23T09:20:06;4.50;;;0.70;;
14209;SDS011;7188;56.070;12.698;2024-02-23T09:22:32;3.70;;;1.03;;
14209;SDS011;7188;56.070;12.698;2024-02-23T09:24:58;4.70;;;1.30;;
14209;SDS011;7188;56.070;12.698;2024-02-23T09:27:23;9.43;;;1.47;;
14209;SDS011;7188;56.070;12.698;2024-02-23T09:29:49;4.87;;;0.60;;
14209;SDS011;7188;56.070;12.698;2024-02-23T09:32:15;5.63;;;1.30;;
14209;SDS011;7188;56.070;12.698;2024-02-23T09:34:40;7.03;;;1.30;;
14209;SDS011;7188;56.070;12.698;2024-02-23T09:37:06;11.00;;;1.20;;
14209;SDS011;7188;56.070;12.698;2024-02-23T09:39:32;4.17;;;1.03;;
14209;SDS011;7188;56.070;12.698;2024-02-23T09:41:57;6.43;;;1.00;;
14209;SDS011;7188;56.070;12.698;2024-02-23T09:44:23;7.53;;;0.80;;
14209;SDS011;7188;56.070;12.698;2024-02-23T09:46:51;12.27;;;1.30;;
14209;SDS011;7188;56.070;12.698;2024-02-23T09:49:17;5.77;;;1.37;;
14209;SDS011;7188;56.070;12.698;2024-02-23T09:51:43;7.30;;;1.10;;
14209;SDS011;7188;56.070;12.698;2024-02-23T09:54:09;9.67;;;1.20;;
14209;SDS011;7188;56.070;12.698;2024-02-23T09:56:35;6.50;;;1.70;;
14209;SDS011;7188;56.070;12.698;2024-02-23T09:59:05;5.87;;;1.13;;
14209;SDS011;7188;56.070;12.698;2024-02-23T10:01:31;9.63;;;1.13;;
14209;SDS011;7188;56.070;12.698;2024-02-23T10:03:58;9.47;;;1.50;;
14209;SDS011;7188;56.070;12.698;2024-02-23T10:06:31;7.13;;;1.20;;
14209;SDS011;7188;56.070;12.698;2024-02-23T10:08:57;4.70;;;1.13;;
14209;SDS011;7188;56.070;12.698;2024-02-23T10:11:23;4.50;;;1.20;;
14209;SDS011;7188;56.070;12.698;2024-02-23T10:13:50;8.93;;;1.53;;
14209;SDS011;7188;56.070;12.698;2024-02-23T10:16:17;11.17;;;1.50;;
14209;SDS011;7188;56.070;12.698;2024-02-23T10:21:53;6.03;;;1.57;;
14209;SDS011;7188;56.070;12.698;2024-02-23T10:24:19;7.03;;;1.27;;
14209;SDS011;7188;56.070;12.698;2024-02-23T10:26:45;11.17;;;1.23;;
14209;SDS011;7188;56.070;12.698;2024-02-23T10:29:10;8.23;;;1.70;;
14209;SDS011;7188;56.070;12.698;2024-02-23T10:31:36;7.40;;;1.17;;
14209;SDS011;7188;56.070;12.698;2024-02-23T10:34:08;6.67;;;1.10;;
14209;SDS011;7188;56.070;12.698;2024-02-23T10:36:37;6.73;;;1.10;;
14209;SDS011;7188;56.070;12.698;2024-02-23T10:39:07;5.87;;;0.70;;
14209;SDS011;7188;56.070;12.698;2024-02-23T10:41:37;3.83;;;1.23;;
14209;SDS011;7188;56.070;12.698;2024-02-23T10:44:07;5.57;;;1.63;;
14209;SDS011;7188;56.070;12.698;2024-02-23T10:46:34;8.20;;;0.97;;
14209;SDS011;7188;56.070;12.698;2024-02-23T10:49:00;4.57;;;1.00;;
14209;SDS011;7188;56.070;12.698;2024-02-23T10:51:28;4.87;;;0.77;;
14209;SDS011;7188;56.070;12.698;2024-02-23T10:53:54;5.03;;;0.90;;
14209;SDS011;7188;56.070;12.698;2024-02-23T10:56:20;6.70;;;1.20;;
14209;SDS011;7188;56.070;12.698;2024-02-23T10:58:47;2.37;;;0.60;;
14209;SDS011;7188;56.070;12.698;2024-02-23T11:01:13;3.17;;;1.13;;
14209;SDS011;7188;56.070;12.698;2024-02-23T11:03:40;5.47;;;0.57;;
14209;SDS011;7188;56.070;12.698;2024-02-23T11:06:09;7.50;;;0.67;;
14209;SDS011;7188;56.070;12.698;2024-02-23T11:08:35;5.50;;;0.80;;
14209;SDS011;7188;56.070;12.698;2024-02-23T11:11:08;5.60;;;1.00;;
14209;SDS011;7188;56.070;12.698;2024-02-23T11:13:38;7.10;;;0.67;;
14209;SDS011;7188;56.070;12.698;2024-02-23T11:16:07;8.73;;;1.00;;
14209;SDS011;7188;56.070;12.698;2024-02-23T11:18:34;3.33;;;1.07;;
14209;SDS011;7188;56.070;12.698;2024-02-23T11:21:04;2.20;;;0.60;;
14209;SDS011;7188;56.070;12.698;2024-02-23T11:26:49;3.97;;;0.87;;
14209;SDS011;7188;56.070;12.698;2024-02-23T11:29:20;7.23;;;0.80;;
14209;SDS011;7188;56.070;12.698;2024-02-23T11:31:46;6.77;;;1.13;;
14209;SDS011;7188;56.070;12.698;2024-02-23T11:34:12;7.27;;;1.00;;
14209;SDS011;7188;56.070;12.698;2024-02-23T11:36:38;3.40;;;1.00;;
14209;SDS011;7188;56.070;12.698;2024-02-23T11:39:04;3.63;;;0.60;;
14209;SDS011;7188;56.070;12.698;2024-02-23T11:41:30;4.87;;;0.90;;
14209;SDS011;7188;56.070;12.698;2024-02-23T11:43:56;4.30;;;0.60;;
14209;SDS011;7188;56.070;12.698;2024-02-23T11:46:23;2.77;;;0.83;;
14209;SDS011;7188;56.070;12.698;2024-02-23T11:48:49;3.73;;;0.80;;
14209;SDS011;7188;56.070;12.698;2024-02-23T11:51:19;8.00;;;0.80;;
14209;SDS011;7188;56.070;12.698;2024-02-23T11:53:46;4.53;;;0.80;;
14209;SDS011;7188;56.070;12.698;2024-02-23T11:56:12;5.70;;;1.00;;
14209;SDS011;7188;56.070;12.698;2024-02-23T11:58:39;3.40;;;0.60;;
14209;SDS011;7188;56.070;12.698;2024-02-23T12:01:05;4.60;;;0.60;;
14209;SDS011;7188;56.070;12.698;2024-02-23T12:03:32;5.17;;;0.60;;
14209;SDS011;7188;56.070;12.698;2024-02-23T12:05:58;4.37;;;0.93;;
14209;SDS011;7188;56.070;12.698;2024-02-23T12:08:25;2.97;;;0.83;;
14209;SDS011;7188;56.070;12.698;2024-02-23T12:10:53;3.23;;;0.63;;
14209;SDS011;7188;56.070;12.698;2024-02-23T12:13:19;2.77;;;0.50;;
14209;SDS011;7188;56.070;12.698;2024-02-23T12:15:45;4.63;;;0.90;;
14209;SDS011;7188;56.070;12.698;2024-02-23T12:18:11;6.17;;;0.70;;
14209;SDS011;7188;56.070;12.698;2024-02-23T12:20:36;3.37;;;0.50;;
14209;SDS011;7188;56.070;12.698;2024-02-23T12:23:02;1.70;;;0.37;;
14209;SDS011;7188;56.070;12.698;2024-02-23T12:25:28;6.13;;;0.80;;
14209;SDS011;7188;56.070;12.698;2024-02-23T12:27:54;2.77;;;0.70;;
14209;SDS011;7188;56.070;12.698;2024-02-23T12:30:33;2.43;;;0.60;;
14209;SDS011;7188;56.070;12.698;2024-02-23T12:33:06;3.30;;;0.50;;
14209;SDS011;7188;56.070;12.698;2024-02-23T12:35:35;3.57;;;0.60;;
14209;SDS011;7188;56.070;12.698;2024-02-23T12:38:01;3.33;;;0.50;;
14209;SDS011;7188;56.070;12.698;2024-02-23T12:40:27;5.93;;;0.60;;
14209;SDS011;7188;56.070;12.698;2024-02-23T12:42:52;5.87;;;0.50;;
14209;SDS011;7188;56.070;12.698;2024-02-23T12:45:18;3.37;;;0.60;;
14209;SDS011;7188;56.070;12.698;2024-02-23T12:47:44;3.17;;;0.67;;
14209;SDS011;7188;56.070;12.698;2024-02-23T12:52:57;1.97;;;0.53;;
14209;SDS011;7188;56.070;12.698;2024-02-23T12:55:23;2.13;;;1.00;;
14209;SDS011;7188;56.070;12.698;2024-02-23T12:57:48;2.27;;;0.60;;
14209;SDS011;7188;56.070;12.698;2024-02-23T13:00:15;4.20;;;1.00;;
14209;SDS011;7188;56.070;12.698;2024-02-23T13:02:41;8.50;;;1.40;;
14209;SDS011;7188;56.070;12.698;2024-02-23T13:05:06;6.03;;;0.80;;
14209;SDS011;7188;56.070;12.698;2024-02-23T13:07:32;4.93;;;0.73;;
14209;SDS011;7188;56.070;12.698;2024-02-23T13:09:58;2.60;;;0.70;;
14209;SDS011;7188;56.070;12.698;2024-02-23T13:12:23;7.97;;;0.80;;
14209;SDS011;7188;56.070;12.698;2024-02-23T13:14:50;4.67;;;0.73;;
14209;SDS011;7188;56.070;12.698;2024-02-23T13:17:16;4.10;;;1.00;;
14209;SDS011;7188;56.070;12.698;2024-02-23T13:19:43;4.83;;;1.03;;
14209;SDS011;7188;56.070;12.698;2024-02-23T13:22:08;7.00;;;0.90;;
14209;SDS011;7188;56.070;12.698;2024-02-23T13:24:34;9.87;;;1.03;;
14209;SDS011;7188;56.070;12.698;2024-02-23T13:27:00;8.37;;;1.40;;
14209;SDS011;7188;56.070;12.698;2024-02-23T13:29:25;4.10;;;1.30;;
14209;SDS011;7188;56.070;12.698;2024-02-23T13:31:51;5.97;;;0.87;;
14209;SDS011;7188;56.070;12.698;2024-02-23T13:37:35;6.17;;;1.20;;
14209;SDS011;7188;56.070;12.698;2024-02-23T13:40:01;4.53;;;1.00;;
14209;SDS011;7188;56.070;12.698;2024-02-23T13:42:28;2.97;;;1.10;;
14209;SDS011;7188;56.070;12.698;2024-02-23T13:44:54;4.80;;;1.00;;
14209;SDS011;7188;56.070;12.698;2024-02-23T13:47:19;2.50;;;0.80;;
14209;SDS011;7188;56.070;12.698;2024-02-23T13:49:45;7.33;;;1.10;;
14209;SDS011;7188;56.070;12.698;2024-02-23T13:52:17;10.60;;;1.93;;
14209;SDS011;7188;56.070;12.698;2024-02-23T13:54:43;6.37;;;1.00;;
14209;SDS011;7188;56.070;12.698;2024-02-23T13:57:08;7.47;;;1.07;;
14209;SDS011;7188;56.070;12.698;2024-02-23T13:59:34;4.87;;;1.17;;
14209;SDS011;7188;56.070;12.698;2024-02-23T14:02:00;3.63;;;0.97;;
14209;SDS011;7188;56.070;12.698;2024-02-23T14:04:25;4.57;;;0.90;;
14209;SDS011;7188;56.070;12.698;2024-02-23T14:06:51;2.47;;;0.60;;
14209;SDS011;7188;56.070;12.698;2024-02-23T14:09:17;5.40;;;0.70;;
14209;SDS011;7188;56.070;12.698;2024-02-23T14:11:43;7.13;;;0.90;;
14209;SDS011;7188;56.070;12.698;2024-02-23T14:14:10;2.00;;;0.70;;
14209;SDS011;7188;56.070;12.698;2024-02-23T14:16:36;2.17;;;0.70;;
14209;SDS011;7188;56.070;12.698;2024-02-23T14:19:01;3.03;;;0.90;;
14209;SDS011;7188;56.070;12.698;2024-02-23T14:21:27;6.27;;;1.37;;
14209;SDS011;7188;56.070;12.698;2024-02-23T14:23:52;5.83;;;0.97;;
14209;SDS011;7188;56.070;12.698;2024-02-23T14:26:18;6.40;;;1.20;;
14209;SDS011;7188;56.070;12.698;2024-02-23T14:28:44;8.83;;;1.37;;
14209;SDS011;7188;56.070;12.698;2024-02-23T14:31:09;4.97;;;0.80;;
14209;SDS011;7188;56.070;12.698;2024-02-23T14:33:35;2.23;;;0.87;;
14209;SDS011;7188;56.070;12.698;2024-02-23T14:36:00;7.33;;;1.10;;
14209;SDS011;7188;56.070;12.698;2024-02-23T14:38:26;4.43;;;0.63;;
14209;SDS011;7188;56.070;12.698;2024-02-23T14:41:07;5.47;;;1.17;;
14209;SDS011;7188;56.070;12.698;2024-02-23T14:43:34;4.63;;;0.70;;
14209;SDS011;7188;56.070;12.698;2024-02-23T14:45:59;5.73;;;1.20;;
14209;SDS011;7188;56.070;12.698;2024-02-23T14:48:25;3.37;;;0.70;;
14209;SDS011;7188;56.070;12.698;2024-02-23T14:50:51;3.40;;;0.97;;
14209;SDS011;7188;56.070;12.698;2024-02-23T14:53:17;2.20;;;1.10;;
14209;SDS011;7188;56.070;12.698;2024-02-23T14:55:42;6.53;;;1.53;;
14209;SDS011;7188;56.070;12.698;2024-02-23T14:58:08;3.17;;;0.80;;
14209;SDS011;7188;56.070;12.698;2024-02-23T15:00:34;6.63;;;1.20;;
14209;SDS011;7188;56.070;12.698;2024-02-23T15:02:59;3.03;;;0.83;;
14209;SDS011;7188;56.070;12.698;2024-02-23T15:05:25;6.87;;;1.03;;
14209;SDS011;7188;56.070;12.698;2024-02-23T15:07:51;6.07;;;0.90;;
14209;SDS011;7188;56.070;12.698;2024-02-23T15:10:17;4.40;;;1.30;;
14209;SDS011;7188;56.070;12.698;2024-02-23T15:12:43;6.13;;;1.00;;